Chicago, Illinois
Current Conditions -  °F | °C
As of 7:53 AM on Saturday 25 Oct 2014 (Local Time) from KMDW Reporting Station
Haze Haze  
Wind Chill: 56°   Ceiling: Unl
Heat Index: 56°   Visibility: 4mi
Dew Point: 54°   Wind: 6mph
Humidity: 93%   Direction: 230°SW
Pressure: 29.91"   Gusts: NA
Location:  41.88°N, 87.63°W
Report Text: KMDW 251253Z 23005KT 4SM BR SCT009 SCT250 13/12 A2991 RMK AO2 SLP128 T01330122
Loading
Personal Weather Stations






























Interactive Weather Map New forecast layout! Learn more

10-Day Weather Forecast

Advertisements
Track Severe Weather on mobile